createdAt,value
2022-10-29T00:04:15.824Z,-83
2022-10-29T00:09:17.801Z,-77
2022-10-29T00:14:19.705Z,-83
2022-10-29T00:19:21.632Z,-81
2022-10-29T00:24:23.713Z,-80
2022-10-29T00:29:25.609Z,-84
2022-10-29T00:34:27.464Z,-78
2022-10-29T00:39:29.588Z,-84
2022-10-29T00:44:35.655Z,-77
2022-10-29T00:49:40.507Z,-82
2022-10-29T00:54:45.311Z,-84
2022-10-29T01:04:53.141Z,-84
2022-10-29T01:09:55.203Z,-83
2022-10-29T01:15:03.094Z,-85
2022-10-29T01:20:54.134Z,-85
2022-10-29T01:26:30.061Z,-80
2022-10-29T01:31:53.287Z,-83
2022-10-29T01:37:03.228Z,-84
2022-10-29T01:42:25.423Z,-85
2022-10-29T01:47:32.933Z,-84
2022-10-29T01:52:37.374Z,-85
2022-10-29T01:57:39.369Z,-84
2022-10-29T02:03:00.791Z,-83
2022-10-29T02:08:29.091Z,-84
2022-10-29T02:13:34.738Z,-84
2022-10-29T02:18:45.031Z,-84
2022-10-29T02:23:47.697Z,-84
2022-10-29T02:28:49.621Z,-82
2022-10-29T02:33:51.982Z,-83
2022-10-29T02:38:53.935Z,-79
2022-10-29T02:43:55.964Z,-79
2022-10-29T02:48:57.892Z,-85
2022-10-29T02:53:59.810Z,-85
2022-10-29T02:59:02.682Z,-85
2022-10-29T03:04:06.164Z,-80
2022-10-29T03:09:08.184Z,-80
2022-10-29T03:14:10.138Z,-86
2022-10-29T03:19:12.078Z,-85
2022-10-29T03:24:14.091Z,-85
2022-10-29T03:29:15.991Z,-81
2022-10-29T03:34:18.072Z,-81
2022-10-29T03:39:19.916Z,-81
2022-10-29T03:44:21.765Z,-84
2022-10-29T03:49:23.622Z,-84
2022-10-29T03:54:25.700Z,-85
2022-10-29T03:59:27.627Z,-85
2022-10-29T04:04:29.477Z,-83
2022-10-29T04:09:31.415Z,-85
2022-10-29T04:14:33.466Z,-85
2022-10-29T04:19:35.561Z,-84
2022-10-29T04:29:59.327Z,-82
2022-10-29T04:35:01.348Z,-83
2022-10-29T04:40:03.810Z,-84
2022-10-29T04:45:07.252Z,-85
2022-10-29T04:50:09.493Z,-80
2022-10-29T04:55:11.465Z,-81
2022-10-29T05:00:17.872Z,-84
2022-10-29T05:05:21.579Z,-85
2022-10-29T05:10:24.227Z,-85
2022-10-29T05:15:27.515Z,-85
2022-10-29T05:20:30.103Z,-79
2022-10-29T05:25:34.887Z,-80
2022-10-29T05:30:37.991Z,-79
2022-10-29T05:35:39.819Z,-79
2022-10-29T05:40:44.848Z,-81
2022-10-29T05:45:47.338Z,-80
2022-10-29T05:50:49.428Z,-80
2022-10-29T05:55:51.443Z,-85
2022-10-29T06:00:53.291Z,-86
2022-10-29T06:05:55.822Z,-86
2022-10-29T06:11:01.135Z,-83
2022-10-29T06:16:03.288Z,-84
2022-10-29T06:21:05.652Z,-86
2022-10-29T06:26:07.599Z,-86
2022-10-29T06:31:09.509Z,-85
2022-10-29T06:36:11.439Z,-86
2022-10-29T06:41:13.700Z,-85
2022-10-29T06:46:15.513Z,-67
2022-10-29T06:51:17.392Z,-64
2022-10-29T06:56:19.587Z,-61
2022-10-29T07:01:21.481Z,-62
2022-10-29T07:06:23.573Z,-66
2022-10-29T07:11:25.485Z,-61
2022-10-29T07:16:27.419Z,-63
2022-10-29T07:21:29.294Z,-66
2022-10-29T07:26:31.132Z,-65
2022-10-29T07:31:32.963Z,-65
2022-10-29T07:36:34.859Z,-64
2022-10-29T07:41:36.789Z,-63
2022-10-29T07:46:38.950Z,-70
2022-10-29T07:51:40.858Z,-71
2022-10-29T07:56:46.726Z,-69
2022-10-29T08:01:49.759Z,-68
2022-10-29T08:06:51.915Z,-68
2022-10-29T08:11:54.053Z,-70
2022-10-29T08:16:55.880Z,-68
2022-10-29T08:21:57.719Z,-70
2022-10-29T08:26:59.579Z,-74
2022-10-29T08:32:01.583Z,-70
2022-10-29T08:37:03.517Z,-73
2022-10-29T08:42:29.064Z,-75
2022-10-29T08:47:42.056Z,-70
2022-10-29T08:52:53.039Z,-69
2022-10-29T08:58:37.453Z,-70
2022-10-29T09:03:39.375Z,-71
2022-10-29T09:09:06.607Z,-71
2022-10-29T09:14:40.982Z,-69
2022-10-29T09:20:16.466Z,-71
2022-10-29T09:25:31.154Z,-69
2022-10-29T09:30:54.525Z,-69
2022-10-29T09:35:59.759Z,-69
2022-10-29T09:41:03.972Z,-69
2022-10-29T09:46:05.904Z,-70
2022-10-29T09:51:29.049Z,-72
2022-10-29T09:56:31.084Z,-69
2022-10-29T10:01:33.483Z,-71
2022-10-29T10:07:03.136Z,-71
2022-10-29T10:12:07.903Z,-69
2022-10-29T10:17:09.832Z,-69
2022-10-29T10:22:24.399Z,-71
2022-10-29T10:27:30.916Z,-67
2022-10-29T10:32:32.784Z,-66
2022-10-29T10:37:34.772Z,-67
2022-10-29T10:42:42.932Z,-67
2022-10-29T10:47:50.899Z,-67
2022-10-29T10:52:56.659Z,-66
2022-10-29T10:58:04.549Z,-65
2022-10-29T11:03:17.441Z,-66
2022-10-29T11:08:24.420Z,-65
2022-10-29T11:13:30.183Z,-65
2022-10-29T11:18:42.412Z,-66
2022-10-29T11:24:03.021Z,-66
2022-10-29T11:29:29.534Z,-64
2022-10-29T11:34:45.283Z,-67
2022-10-29T11:40:06.433Z,-67
2022-10-29T11:45:14.048Z,-67
2022-10-29T11:50:43.462Z,-66
2022-10-29T11:56:39.396Z,-65
2022-10-29T12:01:48.737Z,-66
2022-10-29T12:07:02.923Z,-67
2022-10-29T12:12:17.403Z,-65
2022-10-29T12:17:26.785Z,-67
2022-10-29T12:22:40.376Z,-66
2022-10-29T12:27:49.259Z,-66
2022-10-29T12:33:19.860Z,-67
2022-10-29T12:38:41.762Z,-66
2022-10-29T12:43:44.172Z,-67
2022-10-29T12:48:51.796Z,-66
2022-10-29T12:54:14.445Z,-66
2022-10-29T12:59:25.232Z,-66
2022-10-29T13:04:37.006Z,-66
2022-10-29T13:09:40.328Z,-66
2022-10-29T13:14:55.739Z,-65
2022-10-29T13:20:04.736Z,-66
2022-10-29T13:25:37.433Z,-66
2022-10-29T13:30:41.384Z,-67
2022-10-29T13:35:58.789Z,-65
2022-10-29T13:41:23.435Z,-68
2022-10-29T13:46:42.573Z,-67
2022-10-29T13:51:53.760Z,-66
2022-10-29T13:57:27.953Z,-70
2022-10-29T14:02:42.191Z,-66
2022-10-29T14:08:08.603Z,-65
2022-10-29T14:13:23.509Z,-68
2022-10-29T14:18:27.543Z,-65
2022-10-29T14:23:31.172Z,-67
2022-10-29T14:28:33.697Z,-67
2022-10-29T14:33:37.692Z,-66
2022-10-29T14:38:46.503Z,-66
2022-10-29T14:43:56.643Z,-65
2022-10-29T14:49:21.434Z,-66
2022-10-29T14:54:29.675Z,-67
2022-10-29T14:59:33.548Z,-65
2022-10-29T15:04:35.863Z,-67
2022-10-29T15:09:37.700Z,-66
2022-10-29T15:14:48.891Z,-65
2022-10-29T15:19:59.823Z,-65
2022-10-29T15:25:04.708Z,-65
2022-10-29T15:30:07.326Z,-66
2022-10-29T15:35:10.594Z,-70
2022-10-29T15:40:23.586Z,-71
2022-10-29T15:45:28.179Z,-69
2022-10-29T15:50:39.327Z,-67
2022-10-29T15:55:41.575Z,-66
2022-10-29T16:00:44.081Z,-68
2022-10-29T16:05:49.683Z,-68
2022-10-29T16:10:51.834Z,-68
2022-10-29T16:15:54.095Z,-69
2022-10-29T16:21:01.766Z,-70
2022-10-29T16:26:03.868Z,-67
2022-10-29T16:31:23.344Z,-67
2022-10-29T16:36:25.807Z,-69
2022-10-29T16:41:27.905Z,-68
2022-10-29T16:46:29.737Z,-70
2022-10-29T16:51:31.871Z,-67
2022-10-29T16:56:33.854Z,-68
2022-10-29T17:01:35.733Z,-67
2022-10-29T17:06:37.739Z,-68
2022-10-29T17:11:39.572Z,-68
2022-10-29T17:16:41.902Z,-68
2022-10-29T17:21:43.770Z,-68
2022-10-29T17:26:45.636Z,-68
2022-10-29T17:31:47.603Z,-68
2022-10-29T17:36:49.910Z,-68
2022-10-29T17:41:52.194Z,-68
2022-10-29T17:46:54.926Z,-68
2022-10-29T17:51:56.809Z,-68
2022-10-29T17:56:58.792Z,-68
2022-10-29T18:02:00.851Z,-68
2022-10-29T18:07:02.820Z,-68
2022-10-29T18:12:04.825Z,-68
2022-10-29T18:17:06.816Z,-68
2022-10-29T18:22:08.692Z,-68
2022-10-29T18:27:10.536Z,-68
2022-10-29T18:32:12.440Z,-68
2022-10-29T18:37:14.376Z,-68
2022-10-29T18:42:16.264Z,-68
2022-10-29T18:47:18.090Z,-68
2022-10-29T18:52:19.980Z,-68
2022-10-29T18:57:21.851Z,-67
2022-10-29T19:02:24.017Z,-65
2022-10-29T19:07:26.000Z,-69
2022-10-29T19:12:27.900Z,-68
2022-10-29T19:17:29.903Z,-68
2022-10-29T19:22:32.109Z,-70
2022-10-29T19:27:33.945Z,-68
2022-10-29T19:32:35.792Z,-67
2022-10-29T19:37:37.879Z,-68
2022-10-29T19:42:39.835Z,-68
2022-10-29T19:47:41.728Z,-67
2022-10-29T19:52:43.719Z,-66
2022-10-29T19:57:45.591Z,-68
2022-10-29T20:02:47.832Z,-66
2022-10-29T20:07:49.769Z,-65
2022-10-29T20:12:51.809Z,-65
2022-10-29T20:17:54.367Z,-65
2022-10-29T20:22:56.887Z,-65
2022-10-29T20:28:01.766Z,-67
2022-10-29T20:33:03.966Z,-68
2022-10-29T20:38:05.968Z,-70
2022-10-29T20:43:07.845Z,-67
2022-10-29T20:48:09.694Z,-68
2022-10-29T20:53:11.531Z,-69
2022-10-29T20:58:13.491Z,-67
2022-10-29T21:03:16.869Z,-68
2022-10-29T21:08:18.801Z,-68
2022-10-29T21:13:20.668Z,-67
2022-10-29T21:18:22.827Z,-68
2022-10-29T21:23:24.716Z,-70
2022-10-29T21:28:26.620Z,-68
2022-10-29T21:33:28.603Z,-68
2022-10-29T21:38:31.703Z,-67
2022-10-29T21:43:34.115Z,-68
2022-10-29T21:48:36.265Z,-70
2022-10-29T21:53:38.337Z,-68
2022-10-29T21:58:40.456Z,-68
2022-10-29T22:03:44.381Z,-68
2022-10-29T22:08:47.246Z,-67
2022-10-29T22:13:49.184Z,-67
2022-10-29T22:18:51.386Z,-67
2022-10-29T22:23:58.431Z,-70
2022-10-29T22:29:00.307Z,-68
2022-10-29T22:34:02.198Z,-67
2022-10-29T22:39:04.157Z,-68
2022-10-29T22:44:06.193Z,-67
2022-10-29T22:49:08.204Z,-68
2022-10-29T22:54:10.068Z,-67
2022-10-29T22:59:12.088Z,-68
2022-10-29T23:04:15.592Z,-68
2022-10-29T23:09:17.500Z,-69
2022-10-29T23:14:19.531Z,-69
2022-10-29T23:19:21.917Z,-66
2022-10-29T23:24:23.891Z,-67
2022-10-29T23:29:25.731Z,-68
2022-10-29T23:34:28.335Z,-67
2022-10-29T23:39:30.189Z,-66
2022-10-29T23:44:32.162Z,-67
2022-10-29T23:49:34.064Z,-67
2022-10-29T23:54:36.002Z,-67
2022-10-29T23:59:37.829Z,-68
